createdAt,value
2023-02-24T00:00:55.275Z,49.50
2023-02-24T00:03:25.166Z,51.10
2023-02-24T00:05:55.032Z,51.80
2023-02-24T00:08:24.916Z,52.80
2023-02-24T00:10:54.850Z,53.60
2023-02-24T00:13:24.736Z,53.60
2023-02-24T00:16:07.896Z,54.50
2023-02-24T00:18:37.793Z,55.50
2023-02-24T00:21:13.568Z,55.70
2023-02-24T00:23:44.260Z,57.00
2023-02-24T00:26:15.494Z,57.50
2023-02-24T00:28:45.502Z,57.50
2023-02-24T00:31:20.531Z,58.40
2023-02-24T00:33:50.412Z,59.30
2023-02-24T00:36:24.057Z,59.90
2023-02-24T00:38:55.789Z,60.10
2023-02-24T00:41:29.414Z,61.30
2023-02-24T00:44:06.164Z,61.90
2023-02-24T00:46:42.551Z,62.90
2023-02-24T00:49:17.546Z,63.60
2023-02-24T00:51:49.740Z,63.90
2023-02-24T00:54:19.992Z,64.90
2023-02-24T00:56:51.412Z,65.30
2023-02-24T00:59:22.382Z,65.40
2023-02-24T01:01:55.258Z,65.80
2023-02-24T01:04:25.623Z,65.60
2023-02-24T01:07:00.497Z,66.70
2023-02-24T01:09:32.631Z,66.90
2023-02-24T01:12:17.510Z,67.20
2023-02-24T01:14:47.827Z,67.40
2023-02-24T01:17:21.401Z,67.10
2023-02-24T01:19:51.989Z,67.40
2023-02-24T01:22:23.906Z,67.30
2023-02-24T01:24:53.901Z,67.80
2023-02-24T01:27:23.647Z,68.00
2023-02-24T01:29:53.605Z,67.80
2023-02-24T01:32:29.008Z,68.10
2023-02-24T01:34:59.511Z,68.10
2023-02-24T01:37:30.792Z,68.40
2023-02-24T01:40:05.292Z,68.10
2023-02-24T01:42:34.846Z,68.50
2023-02-24T01:45:16.499Z,68.50
2023-02-24T01:47:50.038Z,68.80
2023-02-24T01:50:23.450Z,68.90
2023-02-24T01:52:56.178Z,68.60
2023-02-24T01:55:31.836Z,68.10
2023-02-24T01:58:07.372Z,68.40
2023-02-24T02:00:45.380Z,68.60
2023-02-24T02:03:27.703Z,68.00
2023-02-24T02:06:03.805Z,67.70
2023-02-24T02:08:36.578Z,67.20
2023-02-24T02:11:09.148Z,67.00
2023-02-24T02:13:42.808Z,67.00
2023-02-24T02:16:26.728Z,67.20
2023-02-24T02:19:21.286Z,66.40
2023-02-24T02:22:09.725Z,66.90
2023-02-24T02:24:48.391Z,66.60
2023-02-24T02:27:53.943Z,65.90
2023-02-24T02:30:49.129Z,66.50
2023-02-24T02:33:33.816Z,66.30
2023-02-24T02:36:14.222Z,65.80
2023-02-24T02:38:52.082Z,65.20
2023-02-24T02:41:28.482Z,66.20
2023-02-24T02:44:07.660Z,66.10
2023-02-24T02:46:43.738Z,65.30
2023-02-24T02:49:19.188Z,65.30
2023-02-24T02:51:56.818Z,64.90
2023-02-24T02:54:31.962Z,63.40
2023-02-24T02:57:06.360Z,64.30
2023-02-24T02:59:40.628Z,64.40
2023-02-24T03:02:17.624Z,62.80
2023-02-24T03:04:53.880Z,63.90
2023-02-24T03:07:31.174Z,62.80
2023-02-24T03:10:06.116Z,62.80
2023-02-24T03:12:37.895Z,62.70
2023-02-24T03:15:13.005Z,61.20
2023-02-24T03:17:46.143Z,62.40
2023-02-24T03:20:24.108Z,62.50
2023-02-24T03:23:02.497Z,62.00
2023-02-24T03:25:44.546Z,62.40
2023-02-24T03:28:22.527Z,63.00
2023-02-24T03:31:03.659Z,62.70
2023-02-24T03:33:38.422Z,62.50
2023-02-24T03:36:08.423Z,62.80
2023-02-24T03:38:41.411Z,62.80
2023-02-24T03:41:13.483Z,62.90
2023-02-24T03:43:47.646Z,63.40
2023-02-24T03:46:18.578Z,63.30
2023-02-24T03:49:00.299Z,63.70
2023-02-24T03:51:31.612Z,64.30
2023-02-24T03:54:20.556Z,64.40
2023-02-24T03:57:01.766Z,65.10
2023-02-24T03:59:43.278Z,65.10
2023-02-24T04:02:18.592Z,65.60
2023-02-24T04:04:52.839Z,66.30
2023-02-24T04:07:36.408Z,66.30
2023-02-24T04:10:13.119Z,66.10
2023-02-24T04:12:48.211Z,66.50
2023-02-24T04:15:24.571Z,66.90
2023-02-24T04:17:59.180Z,67.00
2023-02-24T04:20:33.492Z,66.30
2023-02-24T04:23:08.679Z,66.80
2023-02-24T04:25:42.959Z,66.40
2023-02-24T04:28:14.702Z,66.80
2023-02-24T04:30:48.555Z,66.40
2023-02-24T04:33:18.818Z,66.30
2023-02-24T04:35:50.889Z,66.70
2023-02-24T04:38:21.253Z,66.70
2023-02-24T04:40:53.627Z,66.80
2023-02-24T04:43:23.355Z,67.20
2023-02-24T04:45:55.664Z,67.30
2023-02-24T04:48:25.542Z,66.70
2023-02-24T04:50:55.597Z,66.80
2023-02-24T04:53:27.170Z,67.10
2023-02-24T04:55:59.516Z,67.10
2023-02-24T04:58:30.214Z,66.90
2023-02-24T05:01:00.634Z,67.20
2023-02-24T05:03:30.696Z,67.00
2023-02-24T05:06:02.297Z,67.30
2023-02-24T05:08:33.825Z,67.70
2023-02-24T05:11:07.021Z,68.00
2023-02-24T05:13:37.656Z,67.80
2023-02-24T05:16:10.163Z,67.80
2023-02-24T05:18:40.300Z,66.50
2023-02-24T05:21:24.458Z,66.70
2023-02-24T05:23:58.147Z,66.80
2023-02-24T05:26:32.162Z,66.10
2023-02-24T05:29:02.460Z,66.70
2023-02-24T05:31:33.652Z,66.10
2023-02-24T05:34:06.176Z,66.40
2023-02-24T05:36:40.224Z,66.50
2023-02-24T05:39:12.366Z,66.60
2023-02-24T05:41:48.476Z,66.10
2023-02-24T05:44:23.205Z,66.20
2023-02-24T05:46:58.398Z,66.70
2023-02-24T05:49:33.040Z,66.50
2023-02-24T05:52:07.759Z,66.80
2023-02-24T05:54:41.003Z,66.20
2023-02-24T05:57:14.872Z,66.50
2023-02-24T05:59:45.809Z,66.30
2023-02-24T06:02:17.757Z,65.20
2023-02-24T06:04:51.360Z,65.60
2023-02-24T06:07:24.835Z,65.00
2023-02-24T06:09:57.400Z,66.30
2023-02-24T06:12:32.091Z,66.30
2023-02-24T06:15:02.399Z,65.50
2023-02-24T06:17:32.756Z,64.30
2023-02-24T06:20:08.066Z,61.70
2023-02-24T06:22:42.456Z,62.20
2023-02-24T06:25:14.180Z,60.80
2023-02-24T06:27:53.105Z,61.00
2023-02-24T06:30:24.709Z,59.70
2023-02-24T06:32:54.670Z,59.90
2023-02-24T06:35:24.533Z,59.20
2023-02-24T06:37:55.930Z,59.60
2023-02-24T06:40:25.889Z,58.00
2023-02-24T06:42:58.230Z,59.10
2023-02-24T06:45:30.501Z,58.70
2023-02-24T06:48:00.433Z,58.20
2023-02-24T06:50:31.055Z,55.80
2023-02-24T06:53:01.188Z,55.10
2023-02-24T06:55:31.175Z,54.60
2023-02-24T06:58:04.783Z,55.50
2023-02-24T07:00:45.530Z,54.20
2023-02-24T07:03:19.894Z,53.90
2023-02-24T07:05:54.515Z,54.20
2023-02-24T07:08:27.317Z,54.20
2023-02-24T07:10:58.308Z,53.90
2023-02-24T07:13:31.424Z,53.70
2023-02-24T07:16:06.844Z,50.40
2023-02-24T07:18:41.772Z,49.50
2023-02-24T07:21:13.113Z,51.90
2023-02-24T07:23:43.898Z,51.50
2023-02-24T07:26:15.744Z,49.90
2023-02-24T07:28:50.002Z,50.80
2023-02-24T07:31:22.845Z,49.40
2023-02-24T07:33:57.261Z,49.90
2023-02-24T07:36:30.376Z,48.70
2023-02-24T07:39:02.718Z,49.40
2023-02-24T07:41:32.655Z,50.00
2023-02-24T07:44:09.484Z,51.70
2023-02-24T07:46:39.208Z,49.10
2023-02-24T07:49:09.694Z,48.40
2023-02-24T07:51:39.650Z,47.30
2023-02-24T07:54:11.388Z,48.20
2023-02-24T07:56:46.154Z,48.80
2023-02-24T07:59:19.698Z,48.60
2023-02-24T08:01:55.627Z,48.30
2023-02-24T08:04:28.569Z,49.70
2023-02-24T08:07:03.093Z,48.50
2023-02-24T08:10:09.650Z,47.30
2023-02-24T08:12:42.731Z,48.40
2023-02-24T08:15:24.342Z,48.80
2023-02-24T08:17:59.456Z,43.00
2023-02-24T08:20:36.094Z,43.40
2023-02-24T08:23:08.811Z,44.50
2023-02-24T08:25:38.606Z,44.30
2023-02-24T08:28:11.820Z,44.60
2023-02-24T08:30:47.762Z,43.80
2023-02-24T08:33:22.160Z,40.20
2023-02-24T08:36:01.219Z,42.70
2023-02-24T08:38:39.976Z,43.10
2023-02-24T08:41:18.074Z,43.60
2023-02-24T08:43:49.963Z,41.40
2023-02-24T08:46:26.538Z,40.40
2023-02-24T08:49:00.604Z,42.10
2023-02-24T08:51:34.655Z,43.60
2023-02-24T08:54:10.953Z,40.50
2023-02-24T08:56:43.841Z,39.30
2023-02-24T08:59:29.203Z,40.60
2023-02-24T09:02:17.291Z,42.50
2023-02-24T09:04:47.785Z,41.40
2023-02-24T09:07:20.855Z,43.70
2023-02-24T09:09:56.227Z,40.90
2023-02-24T09:12:29.084Z,43.90
2023-02-24T09:15:01.312Z,41.50
2023-02-24T09:17:49.945Z,44.60
2023-02-24T09:20:43.152Z,44.00
2023-02-24T09:23:20.267Z,41.60
2023-02-24T09:25:54.367Z,40.60
2023-02-24T09:28:25.874Z,40.40
2023-02-24T09:30:57.670Z,41.90
2023-02-24T09:33:38.767Z,40.80
2023-02-24T09:36:13.789Z,40.90
2023-02-24T09:38:58.526Z,38.30
2023-02-24T09:41:53.373Z,38.40
2023-02-24T09:44:29.554Z,36.30
2023-02-24T09:47:08.954Z,32.70
2023-02-24T09:49:50.557Z,34.50
2023-02-24T09:52:31.112Z,32.70
2023-02-24T09:55:15.981Z,32.90
2023-02-24T09:58:03.236Z,33.80
2023-02-24T10:00:43.913Z,34.30
2023-02-24T10:03:41.549Z,33.30
2023-02-24T10:06:23.323Z,33.60
2023-02-24T10:08:58.520Z,33.70
2023-02-24T10:11:35.499Z,38.00
2023-02-24T10:14:08.358Z,32.90
2023-02-24T10:16:46.459Z,36.30
2023-02-24T10:19:29.385Z,35.00
2023-02-24T10:22:08.546Z,34.90
2023-02-24T10:24:47.384Z,36.00
2023-02-24T10:27:23.915Z,33.90
2023-02-24T10:30:10.893Z,34.20
2023-02-24T10:32:47.874Z,35.40
2023-02-24T10:35:19.977Z,36.70
2023-02-24T10:37:52.297Z,38.20
2023-02-24T10:40:44.749Z,35.90
2023-02-24T10:43:19.359Z,37.10
2023-02-24T10:45:56.690Z,35.70
2023-02-24T10:48:43.095Z,35.00
2023-02-24T10:51:20.106Z,34.60
2023-02-24T10:54:10.208Z,33.30
2023-02-24T10:56:44.839Z,32.10
2023-02-24T10:59:29.216Z,33.20
2023-02-24T11:02:06.870Z,32.20
2023-02-24T11:04:54.326Z,34.40
2023-02-24T11:07:43.830Z,30.60
2023-02-24T11:10:26.228Z,30.20
2023-02-24T11:13:10.917Z,29.80
2023-02-24T11:15:58.647Z,30.10
2023-02-24T11:18:30.085Z,29.40
2023-02-24T11:21:03.697Z,28.70
2023-02-24T11:23:40.273Z,29.10
2023-02-24T11:26:19.335Z,28.30
2023-02-24T11:29:15.617Z,27.10
2023-02-24T11:32:15.308Z,27.20
2023-02-24T11:34:51.104Z,25.10
2023-02-24T11:37:27.096Z,26.30
2023-02-24T11:40:02.433Z,25.30
2023-02-24T11:42:42.034Z,23.80
2023-02-24T11:45:22.780Z,24.80
2023-02-24T11:47:56.765Z,24.40
2023-02-24T11:50:40.314Z,26.30
2023-02-24T11:53:21.060Z,24.80
2023-02-24T11:55:59.252Z,24.50
2023-02-24T11:58:40.432Z,23.40
2023-02-24T12:01:16.166Z,25.40
2023-02-24T12:03:54.813Z,22.20
2023-02-24T12:06:31.532Z,22.20
2023-02-24T12:09:07.805Z,21.20
2023-02-24T12:11:44.589Z,19.90
2023-02-24T12:14:33.420Z,21.30
2023-02-24T12:17:14.047Z,18.80
2023-02-24T12:19:57.410Z,19.20
2023-02-24T12:22:34.714Z,18.00
2023-02-24T12:25:05.081Z,17.40
2023-02-24T12:27:48.337Z,16.70
2023-02-24T12:30:51.323Z,17.90
2023-02-24T12:33:46.654Z,17.70
2023-02-24T12:36:22.211Z,19.00
2023-02-24T12:39:00.552Z,16.20
2023-02-24T12:41:55.323Z,13.80
2023-02-24T12:44:33.946Z,13.10
2023-02-24T12:47:12.333Z,11.20
2023-02-24T12:50:10.610Z,13.70
2023-02-24T12:52:55.343Z,14.30
2023-02-24T12:55:31.547Z,13.20
2023-02-24T12:58:13.108Z,11.20
2023-02-24T13:00:57.497Z,13.00
2023-02-24T13:03:42.120Z,13.10
2023-02-24T13:06:19.345Z,10.50
2023-02-24T13:08:58.072Z,9.00
2023-02-24T13:11:39.128Z,11.40
2023-02-24T13:14:17.177Z,11.60
2023-02-24T13:16:47.022Z,9.10
2023-02-24T13:19:32.102Z,7.40
2023-02-24T13:22:08.748Z,7.90
2023-02-24T13:24:40.235Z,9.30
2023-02-24T13:27:23.469Z,8.80
2023-02-24T13:29:57.525Z,8.30
2023-02-24T13:32:34.078Z,8.40
2023-02-24T13:35:09.070Z,8.80
2023-02-24T13:37:40.634Z,7.50
2023-02-24T13:40:26.558Z,8.20
2023-02-24T13:43:01.890Z,9.40
2023-02-24T13:45:33.419Z,8.40
2023-02-24T13:48:21.156Z,9.00
2023-02-24T13:51:09.586Z,8.40
2023-02-24T13:53:59.370Z,8.40
2023-02-24T13:56:39.817Z,8.40
2023-02-24T13:59:36.293Z,8.40
2023-02-24T14:02:14.977Z,7.80
2023-02-24T14:04:51.129Z,8.70
2023-02-24T14:07:26.844Z,8.50
2023-02-24T14:10:01.351Z,8.30
2023-02-24T14:12:32.082Z,8.50
2023-02-24T14:15:02.523Z,9.00
2023-02-24T14:17:33.835Z,9.80
2023-02-24T14:20:21.333Z,9.70
2023-02-24T14:22:54.158Z,11.00
2023-02-24T14:25:26.043Z,11.50
2023-02-24T14:27:57.838Z,9.80
2023-02-24T14:33:24.968Z,11.30
2023-02-24T14:35:53.560Z,10.10
2023-02-24T14:38:34.403Z,10.70
2023-02-24T14:41:03.353Z,9.50
2023-02-24T14:43:32.104Z,9.00
2023-02-24T14:46:07.234Z,11.10
2023-02-24T14:48:37.964Z,10.30
2023-02-24T14:53:52.613Z,11.10
2023-02-24T14:56:25.051Z,11.30
2023-02-24T14:58:59.712Z,11.80
2023-02-24T15:01:31.817Z,10.60
2023-02-24T15:04:03.556Z,10.60
2023-02-24T15:06:40.804Z,10.70
2023-02-24T15:09:18.761Z,10.10
2023-02-24T15:11:48.682Z,10.20
2023-02-24T15:14:24.292Z,10.10
2023-02-24T15:16:56.849Z,9.60
2023-02-24T15:19:29.911Z,8.10
2023-02-24T15:21:59.828Z,8.10
2023-02-24T15:24:34.570Z,8.10
2023-02-24T15:27:21.282Z,7.00
2023-02-24T15:30:02.168Z,8.10
2023-02-24T15:32:36.286Z,8.20
2023-02-24T15:35:07.871Z,6.70
2023-02-24T15:37:44.836Z,7.30
2023-02-24T15:40:24.195Z,8.10
2023-02-24T15:42:56.999Z,8.70
2023-02-24T15:45:31.734Z,8.10
2023-02-24T15:48:03.579Z,8.20
2023-02-24T15:50:34.629Z,8.20
2023-02-24T15:53:09.163Z,8.10
2023-02-24T15:55:43.593Z,8.10
2023-02-24T15:58:18.453Z,8.10
2023-02-24T16:00:52.643Z,8.10
2023-02-24T16:03:22.497Z,8.10
2023-02-24T16:05:52.300Z,8.10
2023-02-24T16:08:22.772Z,8.40
2023-02-24T16:10:55.159Z,8.90
2023-02-24T16:13:27.806Z,9.80
2023-02-24T16:15:57.674Z,9.60
2023-02-24T16:18:28.683Z,9.80
2023-02-24T16:20:58.455Z,11.00
2023-02-24T16:23:29.388Z,11.20
2023-02-24T16:26:02.547Z,12.10
2023-02-24T16:28:34.544Z,12.30
2023-02-24T16:31:04.904Z,12.50
2023-02-24T16:33:51.871Z,11.90
2023-02-24T16:36:26.187Z,11.60
2023-02-24T16:38:56.188Z,12.30
2023-02-24T16:41:30.500Z,12.40
2023-02-24T16:44:00.267Z,12.40
2023-02-24T16:46:35.663Z,12.70
2023-02-24T16:49:05.436Z,12.50
2023-02-24T16:51:35.584Z,12.60
2023-02-24T16:54:05.387Z,12.50
2023-02-24T16:56:37.910Z,12.40
2023-02-24T16:59:07.679Z,12.80
2023-02-24T17:01:37.519Z,13.00
2023-02-24T17:04:11.509Z,12.60
2023-02-24T17:06:41.240Z,12.90
2023-02-24T17:09:15.439Z,12.70
2023-02-24T17:11:47.981Z,12.60
2023-02-24T17:14:19.563Z,12.60
2023-02-24T17:16:50.553Z,13.70
2023-02-24T17:19:20.482Z,13.90
2023-02-24T17:21:50.283Z,13.60
2023-02-24T17:24:21.950Z,14.20
2023-02-24T17:26:58.675Z,13.20
2023-02-24T17:29:28.564Z,13.70
2023-02-24T17:31:58.569Z,14.00
2023-02-24T17:34:28.504Z,14.00
2023-02-24T17:36:58.302Z,13.50
2023-02-24T17:39:28.339Z,13.30
2023-02-24T17:42:00.763Z,13.10
2023-02-24T17:44:30.738Z,13.00
2023-02-24T17:47:00.534Z,12.40
2023-02-24T17:49:30.273Z,12.90
2023-02-24T17:52:00.052Z,12.70
2023-02-24T17:54:29.843Z,12.10
2023-02-24T17:57:02.171Z,11.90
2023-02-24T17:59:31.889Z,11.80
2023-02-24T18:02:02.285Z,11.30
2023-02-24T18:04:32.050Z,11.10
2023-02-24T18:07:01.801Z,10.60
2023-02-24T18:09:31.738Z,10.00
2023-02-24T18:12:04.142Z,9.40
2023-02-24T18:14:34.225Z,8.80
2023-02-24T18:17:04.042Z,9.00
2023-02-24T18:19:33.801Z,8.40
2023-02-24T18:22:03.638Z,8.60
2023-02-24T18:24:34.564Z,7.60
2023-02-24T18:27:07.012Z,7.60
2023-02-24T18:29:36.724Z,7.50
2023-02-24T18:32:06.869Z,7.50
2023-02-24T18:34:36.916Z,7.50
2023-02-24T18:37:06.694Z,6.90
2023-02-24T18:39:36.430Z,7.20
2023-02-24T18:42:09.655Z,7.40
2023-02-24T18:44:39.407Z,7.50
2023-02-24T18:47:09.855Z,7.40
2023-02-24T18:49:40.090Z,7.40
2023-02-24T18:52:11.578Z,7.70
2023-02-24T18:54:41.365Z,7.40
2023-02-24T18:57:13.708Z,7.40
2023-02-24T18:59:43.433Z,7.40
2023-02-24T19:02:13.610Z,7.50
2023-02-24T19:04:45.073Z,8.40
2023-02-24T19:07:15.257Z,8.50
2023-02-24T19:09:45.399Z,8.20
2023-02-24T19:12:19.233Z,8.50
2023-02-24T19:14:49.026Z,8.90
2023-02-24T19:17:18.777Z,8.90
2023-02-24T19:19:49.316Z,8.40
2023-02-24T19:22:19.119Z,8.20
2023-02-24T19:24:48.954Z,8.20
2023-02-24T19:27:21.343Z,8.50
2023-02-24T19:29:54.313Z,8.20
2023-02-24T19:32:24.439Z,7.20
2023-02-24T19:34:54.202Z,7.20
2023-02-24T19:37:23.927Z,7.20
2023-02-24T19:39:54.848Z,7.60
2023-02-24T19:42:27.285Z,7.20
2023-02-24T19:44:57.045Z,7.20
2023-02-24T19:47:26.789Z,7.20
2023-02-24T19:49:56.631Z,7.10
2023-02-24T19:52:26.375Z,6.90
2023-02-24T19:54:57.982Z,6.70
2023-02-24T19:57:30.590Z,7.00
2023-02-24T20:00:00.466Z,7.00
2023-02-24T20:02:30.379Z,7.10
2023-02-24T20:05:01.201Z,7.20
2023-02-24T20:07:30.989Z,7.20
2023-02-24T20:10:00.980Z,7.40
2023-02-24T20:12:33.408Z,7.20
2023-02-24T20:15:03.110Z,7.90
2023-02-24T20:17:33.010Z,8.70
2023-02-24T20:20:02.792Z,10.20
2023-02-24T20:22:32.583Z,10.10
2023-02-24T20:25:02.394Z,11.00
2023-02-24T20:27:34.932Z,11.40
2023-02-24T20:30:04.979Z,11.30
2023-02-24T20:32:34.857Z,11.70
2023-02-24T20:35:04.815Z,11.80
2023-02-24T20:37:34.571Z,11.40
2023-02-24T20:40:04.330Z,11.90
2023-02-24T20:42:36.694Z,11.70
2023-02-24T20:45:07.959Z,12.30
2023-02-24T20:47:37.772Z,12.10
2023-02-24T20:50:08.191Z,10.50
2023-02-24T20:52:38.490Z,10.30
2023-02-24T20:55:09.197Z,10.30
2023-02-24T20:57:41.528Z,1.00
2023-02-24T21:00:15.526Z,1.00
2023-02-24T21:02:45.298Z,1.00
2023-02-24T21:05:22.274Z,1.00
2023-02-24T21:07:52.996Z,1.00
2023-02-24T21:10:25.959Z,1.00
2023-02-24T21:12:58.360Z,1.00
2023-02-24T21:15:28.134Z,1.00
2023-02-24T21:17:57.871Z,1.00
2023-02-24T21:20:27.670Z,4.00
2023-02-24T21:22:57.443Z,4.40
2023-02-24T21:25:27.860Z,5.80
2023-02-24T21:28:00.244Z,6.70
2023-02-24T21:30:30.018Z,9.10
2023-02-24T21:32:59.813Z,8.40
2023-02-24T21:35:29.624Z,9.40
2023-02-24T21:37:59.782Z,11.20
2023-02-24T21:40:29.626Z,14.30
2023-02-24T21:43:02.054Z,15.70
2023-02-24T21:45:33.158Z,17.50
2023-02-24T21:48:02.947Z,19.10
2023-02-24T21:50:33.168Z,20.80
2023-02-24T21:53:03.677Z,22.30
2023-02-24T21:55:34.060Z,20.90
2023-02-24T21:58:06.386Z,23.00
2023-02-24T22:00:36.118Z,23.10
2023-02-24T22:03:05.935Z,23.80
2023-02-24T22:05:35.652Z,21.20
2023-02-24T22:08:05.390Z,19.50
2023-02-24T22:10:35.284Z,18.20
2023-02-24T22:13:07.675Z,19.50
2023-02-24T22:15:40.619Z,19.50
2023-02-24T22:18:10.377Z,19.10
2023-02-24T22:20:40.875Z,18.70
2023-02-24T22:23:10.622Z,19.10
2023-02-24T22:25:40.740Z,17.20
2023-02-24T22:28:13.173Z,19.10
2023-02-24T22:30:42.984Z,18.80
2023-02-24T22:33:12.761Z,18.60
2023-02-24T22:35:42.519Z,17.90
2023-02-24T22:38:12.235Z,17.20
2023-02-24T22:40:42.777Z,18.00
2023-02-24T22:43:15.102Z,18.10
2023-02-24T22:45:45.033Z,18.30
2023-02-24T22:48:14.901Z,17.80
2023-02-24T22:50:44.723Z,16.80
2023-02-24T22:53:14.545Z,16.00
2023-02-24T22:55:49.189Z,12.70
2023-02-24T22:58:23.954Z,10.30
2023-02-24T23:00:54.574Z,8.20
2023-02-24T23:03:25.835Z,6.70
2023-02-24T23:05:59.497Z,9.10
2023-02-24T23:08:30.490Z,11.50
2023-02-24T23:11:07.010Z,8.70
2023-02-24T23:13:39.608Z,8.40
2023-02-24T23:16:11.660Z,10.10
2023-02-24T23:18:41.469Z,11.00
2023-02-24T23:21:12.583Z,9.10
2023-02-24T23:23:42.317Z,8.90
2023-02-24T23:26:12.135Z,5.60
2023-02-24T23:28:44.697Z,6.80
2023-02-24T23:31:20.546Z,9.10
2023-02-24T23:33:50.839Z,7.60
2023-02-24T23:36:21.848Z,5.90
2023-02-24T23:38:52.134Z,4.30
2023-02-24T23:41:22.101Z,2.90
2023-02-24T23:43:54.491Z,3.80
2023-02-24T23:46:24.774Z,4.20
2023-02-24T23:48:55.307Z,3.90
2023-02-24T23:51:25.303Z,4.30
2023-02-24T23:53:55.578Z,2.30
2023-02-24T23:56:27.259Z,1.00
2023-02-24T23:59:01.564Z,1.70
